Rising Sun, Maryland
Current Conditions -  °F | °C
As of 12:50 PM on Wednesday 26 Nov 2014 (Local Time) from KAPG Reporting Station
Light Snow Light Snow  
Wind Chill: 30°   Ceiling: 500
Heat Index: 34°   Visibility: 1mi
Dew Point: 34°   Wind: 5mph
Humidity: 100%   Direction: 360°N
Pressure: 29.97"   Gusts: NA
Location:  39.7°N, 76.06°W
Report Text: KAPG 261750Z 36004KT 1SM -SN BR OVC005 01/01 A2997
Loading
Personal Weather Stations






























Interactive Weather Map New forecast layout! Learn more

10-Day Weather Forecast

Advertisements
Track Severe Weather on mobile